Time;durP1;ratioP1;P1;durP2;ratioP2;P2;SDS_P1;SDS_P2;PMS_P1;PMS_P2;Temp;Humidity;BMP_temperature;BMP_pressure;BME280_temperature;BME280_humidity;BME280_pressure;Samples;Min_cycle;Max_cycle;Signal;HPM_P1;HPM_P2
2022/08/18 00:00:32;;;;;;;8.45;7.75;;;;;;;;;;4958309;28;20041;-63
2022/08/18 00:02:59;;;;;;;9.32;8.48;;;;;;;;;;4961575;28;20038;-64
2022/08/18 00:05:24;;;;;;;9.43;8.52;;;;;;;;;;4962330;28;20023;-66
2022/08/18 00:07:50;;;;;;;8.23;7.47;;;;;;;;;;4957566;28;20086;-66
2022/08/18 00:10:15;;;;;;;7.97;7.28;;;;;;;;;;4961003;28;20047;-65
2022/08/18 00:12:42;;;;;;;8.90;8.20;;;;;;;;;;4962672;28;20154;-65
2022/08/18 00:15:09;;;;;;;8.13;7.50;;;;;;;;;;4957779;28;20488;-63
2022/08/18 00:17:35;;;;;;;8.15;7.50;;;;;;;;;;4961722;28;20025;-63
2022/08/18 00:20:00;;;;;;;10.75;8.98;;;;;;;;;;4964123;28;20035;-65
2022/08/18 00:22:26;;;;;;;9.70;7.63;;;;;;;;;;4963277;28;20433;-65
2022/08/18 00:24:53;;;;;;;9.00;8.30;;;;;;;;;;4962471;28;20378;-66
2022/08/18 00:27:20;;;;;;;9.20;8.40;;;;;;;;;;4964636;28;20035;-65
2022/08/18 00:29:45;;;;;;;12.93;7.57;;;;;;;;;;4962902;28;20543;-66
2022/08/18 00:32:12;;;;;;;8.48;7.88;;;;;;;;;;4962273;28;20059;-65
2022/08/18 00:34:38;;;;;;;9.63;8.70;;;;;;;;;;4962441;28;20046;-64
2022/08/18 00:37:03;;;;;;;7.43;6.90;;;;;;;;;;4950028;28;20027;-64
2022/08/18 00:39:29;;;;;;;8.88;8.10;;;;;;;;;;4963315;28;20055;-64
2022/08/18 00:41:55;;;;;;;9.23;8.52;;;;;;;;;;4963828;28;20031;-64
2022/08/18 00:44:20;;;;;;;8.45;7.60;;;;;;;;;;4963695;28;20493;-64
2022/08/18 00:46:45;;;;;;;9.27;8.48;;;;;;;;;;4950287;28;20031;-64
2022/08/18 00:49:10;;;;;;;8.70;7.90;;;;;;;;;;4961889;28;20039;-64
2022/08/18 00:51:42;;;;;;;9.20;8.43;;;;;;;;;;4963005;28;20033;-64
2022/08/18 00:54:11;;;;;;;9.10;8.40;;;;;;;;;;4962523;28;20057;-64
2022/08/18 00:56:38;;;;;;;9.75;8.95;;;;;;;;;;4962472;28;20027;-64
2022/08/18 00:59:09;;;;;;;8.93;8.23;;;;;;;;;;4940424;28;20385;-66
2022/08/18 01:01:35;;;;;;;8.32;7.72;;;;;;;;;;4963142;28;20073;-64
2022/08/18 01:04:06;;;;;;;9.38;8.55;;;;;;;;;;4958251;28;20117;-63
2022/08/18 01:06:51;;;;;;;8.90;8.10;;;;;;;;;;4958063;28;20529;-63
2022/08/18 01:09:17;;;;;;;9.48;8.57;;;;;;;;;;4957285;28;20046;-64
2022/08/18 01:11:43;;;;;;;9.15;8.40;;;;;;;;;;4958353;28;20041;-64
2022/08/18 01:14:09;;;;;;;9.82;9.00;;;;;;;;;;4961935;28;20043;-64
2022/08/18 01:22:12;;;;;;;8.10;7.40;;;;;;;;;;4959179;28;20042;-66
2022/08/18 01:27:22;;;;;;;9.57;8.63;;;;;;;;;;4963672;28;20042;-66
2022/08/18 01:29:48;;;;;;;9.15;8.25;;;;;;;;;;4963347;28;20039;-65
2022/08/18 01:32:18;;;;;;;8.60;7.53;;;;;;;;;;4962880;28;20058;-66
2022/08/18 01:34:46;;;;;;;8.73;7.93;;;;;;;;;;4962972;28;20050;-65
2022/08/18 01:37:12;;;;;;;8.65;7.85;;;;;;;;;;4963320;28;20042;-65
2022/08/18 01:39:37;;;;;;;7.72;7.07;;;;;;;;;;4961697;28;20039;-64
2022/08/18 01:42:03;;;;;;;9.55;8.55;;;;;;;;;;4964784;28;20559;-65
2022/08/18 01:44:28;;;;;;;8.45;7.85;;;;;;;;;;4969877;28;20436;-65
2022/08/18 01:46:55;;;;;;;8.95;8.25;;;;;;;;;;4962814;28;20023;-65
2022/08/18 01:49:21;;;;;;;10.20;8.10;;;;;;;;;;4948061;28;20088;-65
2022/08/18 01:51:47;;;;;;;10.88;8.52;;;;;;;;;;4967897;28;20088;-65
2022/08/18 01:54:13;;;;;;;9.20;8.50;;;;;;;;;;4964174;28;20035;-65
2022/08/18 01:56:39;;;;;;;8.25;7.65;;;;;;;;;;4963666;28;20042;-64
2022/08/18 01:59:06;;;;;;;8.95;8.20;;;;;;;;;;4964699;28;20031;-65
2022/08/18 02:01:36;;;;;;;8.65;7.95;;;;;;;;;;4962245;28;20089;-64
2022/08/18 02:04:01;;;;;;;7.93;7.32;;;;;;;;;;4967580;28;20031;-64
2022/08/18 02:06:27;;;;;;;9.10;8.32;;;;;;;;;;4966929;28;20521;-64
2022/08/18 02:08:52;;;;;;;9.15;8.35;;;;;;;;;;4961720;28;20118;-65
2022/08/18 02:11:18;;;;;;;9.45;8.63;;;;;;;;;;4962115;28;20038;-63
2022/08/18 02:13:43;;;;;;;10.60;9.43;;;;;;;;;;4967449;28;20136;-63
2022/08/18 02:16:08;;;;;;;10.13;8.80;;;;;;;;;;4946154;28;20142;-63
2022/08/18 02:18:35;;;;;;;8.68;8.00;;;;;;;;;;4962433;28;20097;-62
2022/08/18 02:21:19;;;;;;;8.98;8.23;;;;;;;;;;4966835;28;20038;-63
2022/08/18 02:23:45;;;;;;;8.82;8.10;;;;;;;;;;4965129;28;20077;-63
2022/08/18 02:26:13;;;;;;;9.45;8.65;;;;;;;;;;4961853;28;20082;-64
2022/08/18 02:28:38;;;;;;;9.65;8.70;;;;;;;;;;4968049;28;20061;-63
2022/08/18 02:31:04;;;;;;;9.27;8.32;;;;;;;;;;4968467;28;20027;-66
2022/08/18 02:33:30;;;;;;;9.85;9.07;;;;;;;;;;4966322;28;20301;-63
2022/08/18 02:35:55;;;;;;;10.05;9.25;;;;;;;;;;4963710;28;20034;-63
2022/08/18 02:38:20;;;;;;;10.45;9.63;;;;;;;;;;4965683;28;20034;-63
2022/08/18 02:40:45;;;;;;;10.32;9.38;;;;;;;;;;4967455;28;20023;-63
2022/08/18 02:43:11;;;;;;;9.18;8.35;;;;;;;;;;4962558;28;20469;-64
2022/08/18 02:45:38;;;;;;;9.38;8.57;;;;;;;;;;4965289;28;20576;-63
2022/08/18 02:48:03;;;;;;;9.25;8.48;;;;;;;;;;4968677;28;20042;-63
2022/08/18 02:50:28;;;;;;;9.07;8.27;;;;;;;;;;4968607;28;20306;-63
2022/08/18 02:52:54;;;;;;;8.90;8.25;;;;;;;;;;4968799;28;20133;-63
2022/08/18 02:55:21;;;;;;;8.98;8.23;;;;;;;;;;4966218;28;20042;-63
2022/08/18 02:57:47;;;;;;;9.23;8.32;;;;;;;;;;4962107;28;20026;-63
2022/08/18 03:00:14;;;;;;;9.50;8.60;;;;;;;;;;4958958;28;20147;-62
2022/08/18 03:02:43;;;;;;;11.50;8.18;;;;;;;;;;4963151;28;20065;-64
2022/08/18 03:05:09;;;;;;;8.57;7.82;;;;;;;;;;4966248;28;20058;-63
2022/08/18 03:07:34;;;;;;;9.20;8.43;;;;;;;;;;4963353;28;20026;-63
2022/08/18 03:09:59;;;;;;;15.25;9.15;;;;;;;;;;4959977;28;20035;-63
2022/08/18 03:12:24;;;;;;;9.18;8.35;;;;;;;;;;4959332;28;20466;-63
2022/08/18 03:14:50;;;;;;;8.20;7.50;;;;;;;;;;4960092;28;20030;-63
2022/08/18 03:17:15;;;;;;;10.38;9.43;;;;;;;;;;4962079;28;20027;-63
2022/08/18 03:19:42;;;;;;;10.10;9.15;;;;;;;;;;4959220;28;20326;-63
2022/08/18 03:22:08;;;;;;;10.80;9.80;;;;;;;;;;4959421;28;20027;-63
2022/08/18 03:24:33;;;;;;;10.88;9.68;;;;;;;;;;4944915;28;20053;-64
2022/08/18 03:27:00;;;;;;;13.10;9.65;;;;;;;;;;4960009;28;20109;-63
2022/08/18 03:29:25;;;;;;;10.10;8.68;;;;;;;;;;4965557;28;20043;-63
2022/08/18 03:31:51;;;;;;;10.32;9.32;;;;;;;;;;4947446;28;20055;-62
2022/08/18 03:34:21;;;;;;;13.32;10.77;;;;;;;;;;4959484;28;20026;-63
2022/08/18 03:36:47;;;;;;;10.35;9.55;;;;;;;;;;4964695;28;20054;-63
2022/08/18 03:39:13;;;;;;;10.38;9.38;;;;;;;;;;4977189;28;20031;-63
2022/08/18 03:41:40;;;;;;;10.05;9.05;;;;;;;;;;4959051;28;20033;-63
2022/08/18 03:44:06;;;;;;;14.13;10.50;;;;;;;;;;4961548;28;20509;-63
2022/08/18 03:46:31;;;;;;;9.82;9.02;;;;;;;;;;4965211;28;20074;-63
2022/08/18 03:48:57;;;;;;;9.75;8.77;;;;;;;;;;4962209;28;20538;-62
2022/08/18 03:51:24;;;;;;;12.43;9.43;;;;;;;;;;4959181;28;20042;-63
2022/08/18 03:53:50;;;;;;;11.40;10.48;;;;;;;;;;4961795;28;20019;-63
2022/08/18 03:56:17;;;;;;;10.30;9.23;;;;;;;;;;4959483;28;20023;-63
2022/08/18 03:58:48;;;;;;;10.02;9.13;;;;;;;;;;4958661;28;20050;-63
2022/08/18 04:01:15;;;;;;;11.40;9.02;;;;;;;;;;4964944;28;20035;-63
2022/08/18 04:03:49;;;;;;;12.45;9.07;;;;;;;;;;4964281;28;20100;-63
2022/08/18 04:06:19;;;;;;;10.88;9.88;;;;;;;;;;4963832;28;20054;-63
2022/08/18 04:08:45;;;;;;;11.10;10.20;;;;;;;;;;4959112;28;20037;-63
2022/08/18 04:11:11;;;;;;;10.20;9.27;;;;;;;;;;4959679;28;20035;-63
2022/08/18 04:13:38;;;;;;;13.68;10.60;;;;;;;;;;4965653;28;20054;-63
2022/08/18 04:16:03;;;;;;;11.40;9.90;;;;;;;;;;4959551;28;20030;-63
2022/08/18 04:18:30;;;;;;;12.63;9.80;;;;;;;;;;4958644;28;20498;-63
2022/08/18 04:20:57;;;;;;;11.30;9.25;;;;;;;;;;4963434;28;20027;-63
2022/08/18 04:23:23;;;;;;;11.00;9.93;;;;;;;;;;4964624;28;20026;-63
2022/08/18 04:25:55;;;;;;;9.77;8.98;;;;;;;;;;4963665;28;20039;-62
2022/08/18 04:28:20;;;;;;;10.32;9.15;;;;;;;;;;4960869;28;20226;-63
2022/08/18 04:30:46;;;;;;;11.00;9.88;;;;;;;;;;4956695;28;20034;-63
2022/08/18 04:33:11;;;;;;;11.43;10.52;;;;;;;;;;4961684;28;20086;-63
2022/08/18 04:35:36;;;;;;;11.38;10.07;;;;;;;;;;4958233;28;20453;-63
2022/08/18 04:38:02;;;;;;;10.27;9.27;;;;;;;;;;4941332;28;20041;-62
2022/08/18 04:40:28;;;;;;;11.00;9.98;;;;;;;;;;4943321;28;20158;-63
2022/08/18 04:42:53;;;;;;;11.50;10.32;;;;;;;;;;4957181;28;20027;-63
2022/08/18 04:45:18;;;;;;;12.13;10.23;;;;;;;;;;4964061;28;20094;-63
2022/08/18 04:47:44;;;;;;;11.38;10.18;;;;;;;;;;4964606;28;20023;-63
2022/08/18 04:50:09;;;;;;;11.05;10.10;;;;;;;;;;4959890;28;20066;-63
2022/08/18 04:55:18;;;;;;;11.25;10.25;;;;;;;;;;4960329;28;20089;-63
2022/08/18 04:57:44;;;;;;;12.13;10.10;;;;;;;;;;4956572;28;20030;-63
2022/08/18 05:00:12;;;;;;;10.80;9.80;;;;;;;;;;4961722;28;20030;-63
2022/08/18 05:02:38;;;;;;;11.27;10.30;;;;;;;;;;4939872;28;20269;-64
2022/08/18 05:05:04;;;;;;;10.07;8.70;;;;;;;;;;4963124;28;20106;-63
2022/08/18 05:07:29;;;;;;;10.80;9.70;;;;;;;;;;4961598;28;20508;-63
2022/08/18 05:09:54;;;;;;;11.63;10.25;;;;;;;;;;4958515;28;20508;-63
2022/08/18 05:12:20;;;;;;;10.73;9.82;;;;;;;;;;4956969;28;20037;-63
2022/08/18 05:14:46;;;;;;;10.27;9.38;;;;;;;;;;4959935;28;20121;-64
2022/08/18 05:17:11;;;;;;;12.13;10.70;;;;;;;;;;4957093;28;20030;-63
2022/08/18 05:19:37;;;;;;;9.45;8.48;;;;;;;;;;4962551;28;20037;-63
2022/08/18 05:22:02;;;;;;;12.88;9.38;;;;;;;;;;4962721;28;20493;-63
2022/08/18 05:24:29;;;;;;;10.30;8.57;;;;;;;;;;4962534;28;20157;-63
2022/08/18 05:26:55;;;;;;;10.95;8.82;;;;;;;;;;4962483;28;20022;-63
2022/08/18 05:29:20;;;;;;;9.68;8.77;;;;;;;;;;4960171;28;20639;-62
2022/08/18 05:31:49;;;;;;;9.23;8.10;;;;;;;;;;4957374;28;20085;-63
2022/08/18 05:34:15;;;;;;;9.35;8.52;;;;;;;;;;4962066;28;20046;-62
2022/08/18 05:36:47;;;;;;;13.45;8.95;;;;;;;;;;4957867;28;20022;-64
2022/08/18 05:39:35;;;;;;;9.93;8.90;;;;;;;;;;4957101;28;20027;-62
2022/08/18 05:42:17;;;;;;;10.70;9.05;;;;;;;;;;4950512;28;20050;-63
2022/08/18 05:44:44;;;;;;;9.35;8.32;;;;;;;;;;4957913;28;20438;-65
2022/08/18 05:47:29;;;;;;;10.95;7.97;;;;;;;;;;4959070;28;20019;-63
2022/08/18 05:50:02;;;;;;;9.48;8.27;;;;;;;;;;4957408;28;20132;-64
2022/08/18 05:52:36;;;;;;;15.00;8.48;;;;;;;;;;4959321;28;20145;-63
2022/08/18 05:58:10;;;;;;;8.90;7.20;;;;;;;;;;4960052;28;20113;-63
2022/08/18 06:00:36;;;;;;;14.45;8.48;;;;;;;;;;4939814;28;20039;-63
2022/08/18 06:03:05;;;;;;;10.68;8.40;;;;;;;;;;4959002;28;20773;-64
2022/08/18 06:05:43;;;;;;;8.90;7.97;;;;;;;;;;4955736;28;20038;-64
2022/08/18 06:08:10;;;;;;;9.43;8.43;;;;;;;;;;4960637;28;20043;-64
2022/08/18 06:10:36;;;;;;;10.50;8.05;;;;;;;;;;4962689;28;20114;-63
2022/08/18 06:13:01;;;;;;;12.75;8.68;;;;;;;;;;4964038;28;20478;-63
2022/08/18 06:15:41;;;;;;;11.40;8.23;;;;;;;;;;4961261;28;20035;-64
2022/08/18 06:18:15;;;;;;;10.70;9.05;;;;;;;;;;4962207;28;20023;-63
2022/08/18 06:20:59;;;;;;;10.68;8.38;;;;;;;;;;4955688;28;20416;-63
2022/08/18 06:23:37;;;;;;;9.73;8.75;;;;;;;;;;4960516;28;20612;-64
2022/08/18 06:26:09;;;;;;;11.35;8.68;;;;;;;;;;4955740;28;20034;-64
2022/08/18 06:28:43;;;;;;;10.00;8.65;;;;;;;;;;4959610;28;20476;-64
2022/08/18 06:31:22;;;;;;;13.65;8.30;;;;;;;;;;4961250;28;20038;-63
2022/08/18 06:34:08;;;;;;;11.48;8.75;;;;;;;;;;4943130;29;20047;-63
2022/08/18 06:36:34;;;;;;;10.52;7.53;;;;;;;;;;4923141;29;20145;-62
2022/08/18 06:39:07;;;;;;;9.82;7.65;;;;;;;;;;4942702;29;20525;-62
2022/08/18 06:41:44;;;;;;;12.05;8.52;;;;;;;;;;4946246;29;20036;-64
2022/08/18 06:44:11;;;;;;;10.23;9.20;;;;;;;;;;4941820;29;20493;-64
2022/08/18 06:46:42;;;;;;;9.98;8.98;;;;;;;;;;4940170;29;20486;-62
2022/08/18 06:49:09;;;;;;;9.32;8.38;;;;;;;;;;4942332;29;20036;-63
2022/08/18 06:51:36;;;;;;;14.25;8.52;;;;;;;;;;4939121;29;20056;-63
2022/08/18 06:54:03;;;;;;;11.02;8.40;;;;;;;;;;4942652;29;20055;-63
2022/08/18 06:56:32;;;;;;;9.50;8.57;;;;;;;;;;4938922;29;20035;-62
2022/08/18 06:59:16;;;;;;;9.80;7.47;;;;;;;;;;4943862;29;20038;-62
2022/08/18 07:01:42;;;;;;;8.00;7.20;;;;;;;;;;4941223;29;20027;-62
2022/08/18 07:04:07;;;;;;;8.00;6.78;;;;;;;;;;4943697;29;20055;-62
2022/08/18 07:06:32;;;;;;;8.13;7.43;;;;;;;;;;4940206;29;20613;-62
2022/08/18 07:09:17;;;;;;;8.38;7.57;;;;;;;;;;4943224;29;20065;-66
2022/08/18 07:11:57;;;;;;;7.88;7.15;;;;;;;;;;4947357;29;20612;-65
2022/08/18 07:14:24;;;;;;;8.43;7.65;;;;;;;;;;4945841;29;20024;-64
2022/08/18 07:16:50;;;;;;;8.27;7.65;;;;;;;;;;4941051;29;20030;-64
2022/08/18 07:19:19;;;;;;;9.18;8.27;;;;;;;;;;4939827;29;20114;-66
2022/08/18 07:21:44;;;;;;;8.63;8.02;;;;;;;;;;4942242;29;20358;-63
2022/08/18 07:24:12;;;;;;;11.18;8.77;;;;;;;;;;4939901;29;20141;-64
2022/08/18 07:26:59;;;;;;;8.95;8.13;;;;;;;;;;4944803;29;20157;-64
2022/08/18 07:29:25;;;;;;;8.70;8.00;;;;;;;;;;4920915;29;20619;-64
2022/08/18 07:31:51;;;;;;;9.68;8.98;;;;;;;;;;4948225;28;20059;-64
2022/08/18 07:34:24;;;;;;;7.68;7.05;;;;;;;;;;4958747;28;20031;-64
2022/08/18 07:36:56;;;;;;;8.60;7.72;;;;;;;;;;4962979;28;20054;-64
2022/08/18 07:39:22;;;;;;;10.32;7.50;;;;;;;;;;4958630;28;20493;-63
2022/08/18 07:41:55;;;;;;;8.52;7.72;;;;;;;;;;4960526;28;20031;-64
2022/08/18 07:44:36;;;;;;;8.23;7.43;;;;;;;;;;4958451;28;20433;-63
2022/08/18 07:47:11;;;;;;;8.27;7.47;;;;;;;;;;4961531;28;20746;-64
2022/08/18 07:49:37;;;;;;;7.55;6.88;;;;;;;;;;4960227;28;20035;-69
2022/08/18 07:52:05;;;;;;;9.65;7.90;;;;;;;;;;4958596;28;20059;-69
2022/08/18 07:54:49;;;;;;;7.95;6.97;;;;;;;;;;4958882;28;20548;-70
2022/08/18 07:57:18;;;;;;;7.93;7.22;;;;;;;;;;4958764;28;20381;-70
2022/08/18 07:59:55;;;;;;;7.45;6.70;;;;;;;;;;4961303;28;20448;-71
2022/08/18 08:02:45;;;;;;;9.75;8.57;;;;;;;;;;4957863;28;20453;-71
2022/08/18 08:05:20;;;;;;;7.13;6.68;;;;;;;;;;4959298;28;20031;-71
2022/08/18 08:07:53;;;;;;;8.30;7.53;;;;;;;;;;4958932;28;20122;-71
2022/08/18 08:10:35;;;;;;;7.60;7.10;;;;;;;;;;4959821;28;20362;-71
2022/08/18 08:13:01;;;;;;;7.70;7.20;;;;;;;;;;4956137;28;20477;-71
2022/08/18 08:15:26;;;;;;;8.35;7.65;;;;;;;;;;4957028;28;20276;-71
2022/08/18 08:17:57;;;;;;;8.50;7.78;;;;;;;;;;4960943;28;20019;-71
2022/08/18 08:20:29;;;;;;;11.25;8.50;;;;;;;;;;4963758;28;20039;-71
2022/08/18 08:23:27;;;;;;;8.55;7.55;;;;;;;;;;4963150;28;21015;-71
2022/08/18 08:26:17;;;;;;;8.90;8.18;;;;;;;;;;4925227;28;20043;-71
2022/08/18 08:28:47;;;;;;;9.00;8.07;;;;;;;;;;4964323;28;20461;-71
2022/08/18 08:31:15;;;;;;;8.30;7.47;;;;;;;;;;4964060;28;20556;-71
2022/08/18 08:33:50;;;;;;;11.68;7.82;;;;;;;;;;4962102;28;20493;-71
2022/08/18 08:36:22;;;;;;;11.68;8.93;;;;;;;;;;4958786;28;20031;-70
2022/08/18 08:38:53;;;;;;;10.13;7.90;;;;;;;;;;4957731;28;20122;-71
2022/08/18 08:41:27;;;;;;;11.60;9.27;;;;;;;;;;4960280;28;20305;-70
2022/08/18 08:44:00;;;;;;;12.05;8.13;;;;;;;;;;4958772;28;20511;-71
2022/08/18 08:46:28;;;;;;;11.82;8.63;;;;;;;;;;4963591;28;20045;-71
2022/08/18 08:49:20;;;;;;;12.68;8.23;;;;;;;;;;4962493;28;20461;-70
2022/08/18 08:51:48;;;;;;;8.93;8.18;;;;;;;;;;4867324;29;20088;-70
2022/08/18 08:54:22;;;;;;;12.18;8.65;;;;;;;;;;4867709;29;20560;-68
2022/08/18 08:56:48;;;;;;;11.13;8.37;;;;;;;;;;4867685;29;20041;-69
2022/08/18 08:59:16;;;;;;;11.60;8.80;;;;;;;;;;4860772;29;20468;-70
2022/08/18 09:01:45;;;;;;;9.13;8.23;;;;;;;;;;4862445;29;20032;-70
2022/08/18 09:04:16;;;;;;;8.88;8.07;;;;;;;;;;4868368;29;20031;-70
2022/08/18 09:06:50;;;;;;;9.93;8.60;;;;;;;;;;4850715;29;20028;-70
2022/08/18 09:09:15;;;;;;;;;;;;;;;;;;4862209;29;20045;-70
2022/08/18 09:12:08;;;;;;;8.75;7.95;;;;;;;;;;4866455;29;19976;-70
2022/08/18 09:14:45;;;;;;;9.30;8.38;;;;;;;;;;4862653;29;20981;-70
2022/08/18 09:17:48;;;;;;;9.02;8.05;;;;;;;;;;4866193;29;20571;-69
2022/08/18 09:20:28;;;;;;;10.30;8.27;;;;;;;;;;4814246;29;20077;-69
2022/08/18 09:23:09;;;;;;;12.63;8.35;;;;;;;;;;4817989;29;20133;-68
2022/08/18 09:25:40;;;;;;;16.02;8.40;;;;;;;;;;4818628;29;20038;-68
2022/08/18 09:28:06;;;;;;;9.48;7.85;;;;;;;;;;4833078;29;20171;-68
2022/08/18 09:30:36;;;;;;;9.43;8.52;;;;;;;;;;4882013;29;20107;-70
2022/08/18 09:33:21;;;;;;;17.20;7.85;;;;;;;;;;4883003;29;20436;-66
2022/08/18 09:35:47;;;;;;;9.35;8.15;;;;;;;;;;4880839;29;20056;-67
2022/08/18 09:41:30;;;;;;;13.98;7.63;;;;;;;;;;4886942;29;20165;-65
2022/08/18 09:44:08;;;;;;;9.32;8.40;;;;;;;;;;4886434;29;20120;-67
2022/08/18 09:46:42;;;;;;;8.40;7.63;;;;;;;;;;4886562;29;20154;-64
2022/08/18 09:49:25;;;;;;;8.02;7.32;;;;;;;;;;4887248;29;20028;-64
2022/08/18 09:52:20;;;;;;;9.52;8.50;;;;;;;;;;4887261;29;20753;-63
2022/08/18 09:54:57;;;;;;;11.80;8.73;;;;;;;;;;4937856;28;20050;-64
2022/08/18 09:57:26;;;;;;;12.38;7.30;;;;;;;;;;4959470;28;20721;-63
2022/08/18 10:00:13;;;;;;;10.80;7.50;;;;;;;;;;4963344;28;20026;-65
2022/08/18 10:02:40;;;;;;;18.42;11.65;;;;;;;;;;4961889;28;20027;-66
2022/08/18 10:05:15;;;;;;;9.98;8.32;;;;;;;;;;4961581;28;20023;-65
2022/08/18 10:07:42;;;;;;;32.20;13.18;;;;;;;;;;4963851;28;20034;-65
2022/08/18 10:10:26;;;;;;;33.50;18.25;;;;;;;;;;4947848;28;20034;-66
2022/08/18 10:13:01;;;;;;;18.08;9.05;;;;;;;;;;4960164;28;20360;-66
2022/08/18 10:15:45;;;;;;;20.67;11.70;;;;;;;;;;4964784;28;20529;-63
2022/08/18 10:18:13;;;;;;;15.90;9.63;;;;;;;;;;4959663;28;20034;-65
2022/08/18 10:20:44;;;;;;;12.32;8.85;;;;;;;;;;4962305;28;20139;-66
2022/08/18 10:23:10;;;;;;;11.48;8.13;;;;;;;;;;4959701;28;20034;-65
2022/08/18 10:25:37;;;;;;;9.88;7.93;;;;;;;;;;4963458;28;20031;-65
2022/08/18 10:28:04;;;;;;;8.57;7.80;;;;;;;;;;4960850;28;20031;-65
2022/08/18 10:30:32;;;;;;;8.63;7.78;;;;;;;;;;4961137;28;20034;-65
2022/08/18 10:33:03;;;;;;;11.32;8.32;;;;;;;;;;4960253;28;20529;-65
2022/08/18 10:35:34;;;;;;;9.02;7.78;;;;;;;;;;4960519;28;20443;-65
2022/08/18 10:38:03;;;;;;;9.98;7.97;;;;;;;;;;4960795;28;20038;-65
2022/08/18 10:40:29;;;;;;;8.18;7.45;;;;;;;;;;4959998;28;20082;-65
2022/08/18 10:43:16;;;;;;;8.60;7.70;;;;;;;;;;4964141;28;20034;-67
2022/08/18 10:45:46;;;;;;;7.55;6.85;;;;;;;;;;4962431;28;20031;-67
2022/08/18 10:48:14;;;;;;;8.68;7.15;;;;;;;;;;4959844;28;20058;-66
2022/08/18 10:50:52;;;;;;;7.45;6.78;;;;;;;;;;4963011;28;20037;-67
2022/08/18 10:53:36;;;;;;;7.50;6.93;;;;;;;;;;4965256;28;20063;-65
2022/08/18 10:56:10;;;;;;;7.70;6.93;;;;;;;;;;4965331;28;20494;-65
2022/08/18 10:59:00;;;;;;;7.85;6.97;;;;;;;;;;4964127;28;20088;-65
2022/08/18 11:01:31;;;;;;;8.18;7.55;;;;;;;;;;4960247;28;20039;-65
2022/08/18 11:04:26;;;;;;;7.65;6.95;;;;;;;;;;4961236;28;20085;-64
2022/08/18 11:07:00;;;;;;;7.07;6.40;;;;;;;;;;4946737;28;20579;-65
2022/08/18 11:09:27;;;;;;;7.28;6.57;;;;;;;;;;4959461;28;20038;-65
2022/08/18 11:11:53;;;;;;;8.00;7.13;;;;;;;;;;4964679;28;20023;-65
2022/08/18 11:14:33;;;;;;;10.85;6.28;;;;;;;;;;4958414;28;20046;-65
2022/08/18 11:16:58;;;;;;;7.28;6.63;;;;;;;;;;4962606;28;20033;-65
2022/08/18 11:19:24;;;;;;;8.27;7.57;;;;;;;;;;4963355;28;20027;-65
2022/08/18 11:21:50;;;;;;;9.00;6.53;;;;;;;;;;4959098;28;20612;-64
2022/08/18 11:24:15;;;;;;;6.40;5.85;;;;;;;;;;4961400;28;20042;-66
2022/08/18 11:26:41;;;;;;;7.10;6.40;;;;;;;;;;4959508;28;20429;-66
2022/08/18 11:29:45;;;;;;;9.70;7.35;;;;;;;;;;4943221;28;20038;-66
2022/08/18 11:32:23;;;;;;;8.73;6.72;;;;;;;;;;4927169;29;20055;-66
2022/08/18 11:35:00;;;;;;;9.30;6.82;;;;;;;;;;4941790;29;20069;-64
2022/08/18 11:37:31;;;;;;;7.30;6.60;;;;;;;;;;4916994;29;20035;-66
2022/08/18 11:39:57;;;;;;;8.18;7.38;;;;;;;;;;4940757;29;20130;-66
2022/08/18 11:42:27;;;;;;;9.27;6.65;;;;;;;;;;4945684;29;20078;-66
2022/08/18 11:44:53;;;;;;;7.88;6.85;;;;;;;;;;4941724;29;20037;-66
2022/08/18 11:47:20;;;;;;;8.95;6.72;;;;;;;;;;4939530;29;20035;-66
2022/08/18 11:49:51;;;;;;;10.02;7.07;;;;;;;;;;4944678;29;20039;-66
2022/08/18 11:52:22;;;;;;;7.88;7.03;;;;;;;;;;4945178;29;20150;-66
2022/08/18 11:54:48;;;;;;;6.95;6.25;;;;;;;;;;4929465;29;20148;-63
2022/08/18 11:57:26;;;;;;;9.18;6.78;;;;;;;;;;4944706;29;20039;-66
2022/08/18 11:59:51;;;;;;;6.40;5.65;;;;;;;;;;4945334;29;20186;-66
2022/08/18 12:02:17;;;;;;;10.50;5.50;;;;;;;;;;4949870;28;20039;-62
2022/08/18 12:04:42;;;;;;;7.10;6.55;;;;;;;;;;4962861;28;20097;-64
2022/08/18 12:07:14;;;;;;;7.70;6.18;;;;;;;;;;4959238;28;20041;-64
2022/08/18 12:09:45;;;;;;;6.80;6.20;;;;;;;;;;4958414;28;20026;-65
2022/08/18 12:12:21;;;;;;;10.65;6.53;;;;;;;;;;4963435;28;20030;-66
2022/08/18 12:15:18;;;;;;;11.10;6.00;;;;;;;;;;4963306;28;20026;-66
2022/08/18 12:17:44;;;;;;;7.50;6.25;;;;;;;;;;4957900;28;20035;-66
2022/08/18 12:20:10;;;;;;;9.07;6.45;;;;;;;;;;4959026;28;20564;-66
2022/08/18 12:22:37;;;;;;;7.03;6.32;;;;;;;;;;4958394;28;20038;-67
2022/08/18 12:25:03;;;;;;;10.60;5.85;;;;;;;;;;4960224;28;20081;-66
2022/08/18 12:27:30;;;;;;;7.07;6.38;;;;;;;;;;4959413;28;20037;-66
2022/08/18 12:29:57;;;;;;;7.90;7.30;;;;;;;;;;4971439;28;20431;-66
2022/08/18 12:32:23;;;;;;;7.05;6.13;;;;;;;;;;4964431;28;20054;-66
2022/08/18 12:34:48;;;;;;;6.55;5.88;;;;;;;;;;4964563;28;20035;-66
2022/08/18 12:37:18;;;;;;;11.05;6.20;;;;;;;;;;4963501;28;20031;-66
2022/08/18 12:39:43;;;;;;;5.97;5.57;;;;;;;;;;4964354;28;20037;-66
2022/08/18 12:42:09;;;;;;;10.30;6.30;;;;;;;;;;4963714;28;20035;-66
2022/08/18 12:44:35;;;;;;;14.45;8.45;;;;;;;;;;4963332;28;20026;-66
2022/08/18 12:47:06;;;;;;;7.43;5.57;;;;;;;;;;4963867;28;20506;-67
2022/08/18 12:49:31;;;;;;;5.80;5.20;;;;;;;;;;4960531;28;20633;-67
2022/08/18 12:51:56;;;;;;;7.63;6.00;;;;;;;;;;4957698;28;20031;-66
2022/08/18 12:54:21;;;;;;;5.85;5.15;;;;;;;;;;4960045;28;20097;-65
2022/08/18 12:56:49;;;;;;;6.90;6.20;;;;;;;;;;4963363;28;20034;-66
2022/08/18 12:59:15;;;;;;;5.65;5.30;;;;;;;;;;4962614;28;20544;-66
2022/08/18 13:01:40;;;;;;;7.38;6.22;;;;;;;;;;4959138;28;20038;-67
2022/08/18 13:04:06;;;;;;;7.55;6.18;;;;;;;;;;4957883;28;20085;-66
2022/08/18 13:06:33;;;;;;;7.35;5.97;;;;;;;;;;4959660;28;20038;-66
2022/08/18 13:08:58;;;;;;;10.65;5.65;;;;;;;;;;4955151;28;20037;-67
2022/08/18 13:11:23;;;;;;;7.63;6.93;;;;;;;;;;4958381;28;20477;-62
2022/08/18 13:13:51;;;;;;;6.65;6.05;;;;;;;;;;4957914;28;20027;-60
2022/08/18 13:16:17;;;;;;;7.97;5.90;;;;;;;;;;4960849;28;20027;-60
2022/08/18 13:18:42;;;;;;;5.72;5.20;;;;;;;;;;4962544;28;20030;-59
2022/08/18 13:21:09;;;;;;;6.53;5.95;;;;;;;;;;4961387;28;20046;-61
2022/08/18 13:23:34;;;;;;;10.00;6.82;;;;;;;;;;4963253;28;20042;-65
2022/08/18 13:26:00;;;;;;;6.70;6.10;;;;;;;;;;4959839;28;20533;-64
2022/08/18 13:28:26;;;;;;;6.05;5.53;;;;;;;;;;4942917;28;20404;-65
2022/08/18 13:30:52;;;;;;;8.48;5.70;;;;;;;;;;4964307;28;20493;-63
2022/08/18 13:33:17;;;;;;;6.72;5.50;;;;;;;;;;4961892;28;20141;-63
2022/08/18 13:35:43;;;;;;;6.05;5.55;;;;;;;;;;4958631;28;20420;-64
2022/08/18 13:38:09;;;;;;;6.30;5.70;;;;;;;;;;4943705;28;20188;-64
2022/08/18 13:40:35;;;;;;;7.13;6.32;;;;;;;;;;4946310;28;20038;-64
2022/08/18 13:43:01;;;;;;;7.13;6.20;;;;;;;;;;4958165;28;20029;-64
2022/08/18 13:45:26;;;;;;;6.45;5.85;;;;;;;;;;4956946;28;20038;-64
2022/08/18 13:47:51;;;;;;;7.63;5.68;;;;;;;;;;4960056;28;20037;-63
2022/08/18 13:50:16;;;;;;;7.32;5.88;;;;;;;;;;4956891;28;20043;-62
2022/08/18 13:52:43;;;;;;;9.77;5.65;;;;;;;;;;4961575;28;20035;-63
2022/08/18 13:55:10;;;;;;;5.72;5.22;;;;;;;;;;4941021;28;20327;-63
2022/08/18 13:57:36;;;;;;;8.70;5.97;;;;;;;;;;4950316;28;20038;-61
2022/08/18 14:00:03;;;;;;;6.18;5.63;;;;;;;;;;4959046;28;20031;-63
2022/08/18 14:02:28;;;;;;;5.85;5.38;;;;;;;;;;4956182;28;20027;-63
2022/08/18 14:04:54;;;;;;;8.10;6.22;;;;;;;;;;4940862;28;20434;-63
2022/08/18 14:07:20;;;;;;;7.95;6.07;;;;;;;;;;4960624;28;20025;-64
2022/08/18 14:09:45;;;;;;;8.57;6.03;;;;;;;;;;4957303;28;20476;-63
2022/08/18 14:12:21;;;;;;;7.53;5.90;;;;;;;;;;4959525;28;20035;-63
2022/08/18 14:14:46;;;;;;;6.13;5.53;;;;;;;;;;4957096;28;20705;-64
2022/08/18 14:17:11;;;;;;;7.32;6.25;;;;;;;;;;4959576;28;20030;-62
2022/08/18 14:27:48;;;;;;;6.38;5.55;;;;;;;;;;4958940;28;20097;-63
2022/08/18 14:30:14;;;;;;;9.55;5.93;;;;;;;;;;4960232;28;20035;-63
2022/08/18 14:32:40;;;;;;;13.43;6.20;;;;;;;;;;4961424;28;20055;-64
2022/08/18 14:35:07;;;;;;;6.32;5.93;;;;;;;;;;4962623;28;20038;-62
2022/08/18 14:37:32;;;;;;;6.60;5.78;;;;;;;;;;4956756;28;20026;-63
2022/08/18 14:39:58;;;;;;;7.13;6.40;;;;;;;;;;4957457;28;20509;-63
2022/08/18 14:42:23;;;;;;;10.73;6.88;;;;;;;;;;4961643;28;20401;-63
2022/08/18 14:44:49;;;;;;;8.85;5.40;;;;;;;;;;4959392;28;20110;-64
2022/08/18 14:47:15;;;;;;;7.07;6.38;;;;;;;;;;4948014;28;20050;-63
2022/08/18 14:49:40;;;;;;;13.27;6.90;;;;;;;;;;4958768;28;20490;-63
2022/08/18 14:52:05;;;;;;;8.45;6.95;;;;;;;;;;4958900;28;20040;-63
2022/08/18 14:54:31;;;;;;;6.05;5.45;;;;;;;;;;4963206;28;20022;-63
2022/08/18 14:56:57;;;;;;;5.88;5.50;;;;;;;;;;4959874;28;20067;-64
2022/08/18 14:59:23;;;;;;;6.88;6.22;;;;;;;;;;4961783;28;20027;-64
2022/08/18 15:01:49;;;;;;;9.45;6.40;;;;;;;;;;4966222;28;20148;-64
2022/08/18 15:04:15;;;;;;;8.85;7.03;;;;;;;;;;4959545;28;20035;-64
2022/08/18 15:06:41;;;;;;;7.45;6.30;;;;;;;;;;4959651;28;20030;-64
2022/08/18 15:09:06;;;;;;;9.30;6.50;;;;;;;;;;4959476;28;20492;-61
2022/08/18 15:11:32;;;;;;;8.95;6.15;;;;;;;;;;4958987;28;20417;-64
2022/08/18 15:13:59;;;;;;;8.35;6.15;;;;;;;;;;4957978;28;20432;-64
2022/08/18 15:16:24;;;;;;;6.00;5.40;;;;;;;;;;4958675;28;20137;-65